createdAt,value
2019-02-19T00:00:30.433Z,381.63
2019-02-19T00:03:00.033Z,368.02
2019-02-19T00:05:29.587Z,275.55
2019-02-19T00:07:59.038Z,278.25
2019-02-19T00:10:28.450Z,249.05
2019-02-19T00:12:58.083Z,238.75
2019-02-19T00:15:27.486Z,251.52
2019-02-19T00:17:56.933Z,335.27
2019-02-19T00:20:26.543Z,364.45
2019-02-19T00:22:56.070Z,400.55
2019-02-19T00:25:25.481Z,299.73
2019-02-19T00:27:55.241Z,295.55
2019-02-19T00:30:24.769Z,348.57
2019-02-19T00:32:54.232Z,337.72
2019-02-19T00:35:23.922Z,346.20
2019-02-19T00:37:53.339Z,421.40
2019-02-19T00:40:22.839Z,393.07
2019-02-19T00:42:52.680Z,367.48
2019-02-19T00:45:22.117Z,433.92
2019-02-19T00:47:51.549Z,396.40
2019-02-19T00:50:21.065Z,323.27
2019-02-19T00:52:50.516Z,367.65
2019-02-19T00:55:19.938Z,422.30
2019-02-19T00:57:49.432Z,358.00
2019-02-19T01:00:19.015Z,409.05
2019-02-19T01:02:48.483Z,398.60
2019-02-19T01:05:17.939Z,409.87
2019-02-19T01:07:47.803Z,419.58
2019-02-19T01:10:17.313Z,372.42
2019-02-19T01:12:46.811Z,384.83
2019-02-19T01:15:16.353Z,307.45
2019-02-19T01:17:45.944Z,309.48
2019-02-19T01:20:15.663Z,320.07
2019-02-19T01:22:45.097Z,291.35
2019-02-19T01:25:14.554Z,303.93
2019-02-19T01:27:43.995Z,282.57
2019-02-19T01:30:13.645Z,286.75
2019-02-19T01:32:43.157Z,297.55
2019-02-19T01:35:12.648Z,306.60
2019-02-19T01:37:42.281Z,283.45
2019-02-19T01:40:11.852Z,301.95
2019-02-19T01:42:41.353Z,288.10
2019-02-19T01:45:10.887Z,335.67
2019-02-19T01:47:40.347Z,325.98
2019-02-19T01:50:10.017Z,325.32
2019-02-19T01:52:39.568Z,307.12
2019-02-19T01:55:09.358Z,321.40
2019-02-19T01:57:38.783Z,278.88
2019-02-19T02:00:09.546Z,328.37
2019-02-19T02:02:39.004Z,317.70
2019-02-19T02:05:08.566Z,297.52
2019-02-19T02:07:38.021Z,292.68
2019-02-19T02:10:07.782Z,303.63
2019-02-19T02:12:37.240Z,306.77
2019-02-19T02:15:07.137Z,371.52
2019-02-19T02:17:36.620Z,360.05
2019-02-19T02:20:06.509Z,345.70
2019-02-19T02:22:36.095Z,291.80
2019-02-19T02:25:05.654Z,284.35
2019-02-19T02:27:35.072Z,357.48
2019-02-19T02:30:04.893Z,343.57
2019-02-19T02:32:34.378Z,405.87
2019-02-19T02:35:03.976Z,356.95
2019-02-19T02:37:33.463Z,374.48
2019-02-19T02:40:02.892Z,366.85
2019-02-19T02:42:32.366Z,368.37
2019-02-19T02:45:01.840Z,328.40
2019-02-19T02:47:31.196Z,342.77
2019-02-19T02:50:00.623Z,363.73
2019-02-19T02:52:30.089Z,385.22
2019-02-19T02:54:59.651Z,401.73
2019-02-19T02:57:29.094Z,366.52
2019-02-19T02:59:58.622Z,377.48
2019-02-19T03:02:28.065Z,279.00
2019-02-19T03:04:57.554Z,299.90
2019-02-19T03:07:31.891Z,354.18
2019-02-19T03:10:01.346Z,348.48
2019-02-19T03:12:30.809Z,408.27
2019-02-19T03:15:00.444Z,369.87
2019-02-19T03:17:30.013Z,390.00
2019-02-19T03:19:59.745Z,448.23
2019-02-19T03:22:29.225Z,453.35
2019-02-19T03:24:58.722Z,457.10
2019-02-19T03:27:28.397Z,452.23
2019-02-19T03:29:57.875Z,435.40
2019-02-19T03:32:27.341Z,433.38
2019-02-19T03:34:56.790Z,459.00
2019-02-19T03:37:26.369Z,409.80
2019-02-19T03:39:55.843Z,456.35
2019-02-19T03:42:25.389Z,452.28
2019-02-19T03:44:54.876Z,402.27
2019-02-19T03:47:24.349Z,375.02
2019-02-19T03:49:53.789Z,385.57
2019-02-19T03:52:23.725Z,460.10
2019-02-19T03:54:53.222Z,426.93
2019-02-19T03:57:22.697Z,446.98
2019-02-19T03:59:52.130Z,446.22
2019-02-19T04:02:21.631Z,435.23
2019-02-19T04:04:51.091Z,425.07
2019-02-19T04:07:20.949Z,444.90
2019-02-19T04:09:50.405Z,470.32
2019-02-19T04:12:19.813Z,380.30
2019-02-19T04:14:49.538Z,410.05
2019-02-19T04:17:18.984Z,345.88
2019-02-19T04:19:48.488Z,378.58
2019-02-19T04:22:18.129Z,362.23
2019-02-19T04:24:47.635Z,392.80
2019-02-19T04:27:17.067Z,390.15
2019-02-19T04:29:46.483Z,453.70
2019-02-19T04:32:15.997Z,403.57
2019-02-19T04:34:45.528Z,406.10
2019-02-19T04:37:15.092Z,408.38
2019-02-19T04:39:44.553Z,385.40
2019-02-19T04:42:14.061Z,417.05
2019-02-19T04:44:43.484Z,403.25
2019-02-19T04:47:13.026Z,413.60
2019-02-19T04:49:42.552Z,380.48
2019-02-19T04:52:12.017Z,388.30
2019-02-19T04:54:41.571Z,352.32
2019-02-19T04:57:11.208Z,323.20
2019-02-19T04:59:40.737Z,268.77
2019-02-19T05:02:10.257Z,263.00
2019-02-19T05:04:39.887Z,289.63
2019-02-19T05:07:09.837Z,332.80
2019-02-19T05:09:39.304Z,366.10
2019-02-19T05:12:08.763Z,350.95
2019-02-19T05:14:38.219Z,360.30
2019-02-19T05:17:08.021Z,335.52
2019-02-19T05:19:37.506Z,320.15
2019-02-19T05:22:07.283Z,294.77
2019-02-19T05:24:36.804Z,284.27
2019-02-19T05:27:06.228Z,318.37
2019-02-19T05:29:36.088Z,312.32
2019-02-19T05:32:05.754Z,313.82
2019-02-19T05:34:35.435Z,293.23
2019-02-19T05:37:04.971Z,288.80
2019-02-19T05:39:34.478Z,303.37
2019-02-19T05:42:03.956Z,255.60
2019-02-19T05:44:33.474Z,239.93
2019-02-19T05:47:03.079Z,275.80
2019-02-19T05:49:32.672Z,261.32
2019-02-19T05:52:02.197Z,256.98
2019-02-19T05:54:31.859Z,254.78
2019-02-19T05:57:01.307Z,272.63
2019-02-19T05:59:32.499Z,308.82
2019-02-19T06:02:02.092Z,238.97
2019-02-19T06:04:31.528Z,253.27
2019-02-19T06:07:01.044Z,259.32
2019-02-19T06:09:30.496Z,255.50
2019-02-19T06:11:59.990Z,255.67
2019-02-19T06:14:29.386Z,265.73
2019-02-19T06:16:59.102Z,260.57
2019-02-19T06:19:28.575Z,253.90
2019-02-19T06:21:58.099Z,255.25
2019-02-19T06:24:27.536Z,264.25
2019-02-19T06:26:57.048Z,230.00
2019-02-19T06:29:26.551Z,232.95
2019-02-19T06:31:56.163Z,230.60
2019-02-19T06:34:25.628Z,204.13
2019-02-19T06:36:55.197Z,188.32
2019-02-19T06:39:24.664Z,182.45
2019-02-19T06:41:54.095Z,173.17
2019-02-19T06:44:23.456Z,177.00
2019-02-19T06:46:52.951Z,189.85
2019-02-19T06:49:22.437Z,185.50
2019-02-19T06:51:51.913Z,182.57
2019-02-19T06:54:21.438Z,183.18
2019-02-19T06:56:50.882Z,171.62
2019-02-19T06:59:20.575Z,168.43
2019-02-19T07:02:04.214Z,192.80
2019-02-19T07:04:37.307Z,188.42
2019-02-19T07:07:09.487Z,166.57
2019-02-19T07:09:39.084Z,163.50
2019-02-19T07:12:08.517Z,155.00
2019-02-19T07:14:38.047Z,158.95
2019-02-19T07:17:15.273Z,159.70
2019-02-19T07:19:38.698Z,156.37
2019-02-19T07:22:08.277Z,155.12
2019-02-19T07:24:37.711Z,153.45
2019-02-19T07:27:07.297Z,148.45
2019-02-19T07:29:36.857Z,140.25
2019-02-19T07:32:06.395Z,142.13
2019-02-19T07:34:36.000Z,144.85
2019-02-19T07:37:05.472Z,158.47
2019-02-19T07:39:34.941Z,141.33
2019-02-19T07:42:04.454Z,134.03
2019-02-19T07:44:33.927Z,133.80
2019-02-19T07:47:03.424Z,133.85
2019-02-19T07:49:32.847Z,126.43
2019-02-19T07:52:02.482Z,119.62
2019-02-19T07:54:31.959Z,121.45
2019-02-19T07:57:01.506Z,121.37
2019-02-19T07:59:31.175Z,120.85
2019-02-19T08:02:00.675Z,119.62
2019-02-19T08:04:30.137Z,114.55
2019-02-19T08:06:59.852Z,116.40
2019-02-19T08:09:29.278Z,116.45
2019-02-19T08:11:58.107Z,112.70
2019-02-19T08:14:28.639Z,110.17
2019-02-19T08:16:58.421Z,111.90
2019-02-19T08:19:27.985Z,109.92
2019-02-19T08:21:57.353Z,111.12
2019-02-19T08:24:26.832Z,107.00
2019-02-19T08:26:56.547Z,105.03
2019-02-19T08:29:26.025Z,113.35
2019-02-19T08:31:55.479Z,101.45
2019-02-19T08:34:25.096Z,95.53
2019-02-19T08:36:54.606Z,101.02
2019-02-19T08:39:24.220Z,106.97
2019-02-19T08:41:53.841Z,102.10
2019-02-19T08:44:23.396Z,101.55
2019-02-19T08:46:52.959Z,97.37
2019-02-19T08:49:22.506Z,101.92
2019-02-19T08:51:56.093Z,95.65
2019-02-19T08:54:23.156Z,96.35
2019-02-19T08:56:52.601Z,97.57
2019-02-19T08:59:22.274Z,100.05
2019-02-19T09:01:51.802Z,96.80
2019-02-19T09:04:21.275Z,94.17
2019-02-19T09:06:50.965Z,89.40
2019-02-19T09:09:20.384Z,95.00
2019-02-19T09:11:49.804Z,91.90
2019-02-19T09:14:19.468Z,89.92
2019-02-19T09:16:48.956Z,85.80
2019-02-19T09:19:18.442Z,84.55
2019-02-19T09:21:48.108Z,80.30
2019-02-19T09:24:17.536Z,85.22
2019-02-19T09:26:47.072Z,84.17
2019-02-19T09:29:16.798Z,78.12
2019-02-19T09:31:46.230Z,77.12
2019-02-19T09:34:15.706Z,82.27
2019-02-19T09:36:45.484Z,77.67
2019-02-19T09:39:14.940Z,79.73
2019-02-19T09:41:45.044Z,70.78
2019-02-19T09:44:14.520Z,71.13
2019-02-19T09:46:44.357Z,72.22
2019-02-19T09:49:13.810Z,79.70
2019-02-19T09:51:42.608Z,72.92
2019-02-19T09:54:12.186Z,71.07
2019-02-19T09:56:41.596Z,67.03
2019-02-19T09:59:12.332Z,68.12
2019-02-19T10:01:41.879Z,64.65
2019-02-19T10:04:11.673Z,63.80
2019-02-19T10:06:41.154Z,57.85
2019-02-19T10:09:10.633Z,60.00
2019-02-19T10:11:39.489Z,55.80
2019-02-19T10:14:08.971Z,52.33
2019-02-19T10:16:41.624Z,52.47
2019-02-19T10:19:09.944Z,58.60
2019-02-19T10:21:39.469Z,54.65
2019-02-19T10:24:09.086Z,48.23
2019-02-19T10:26:38.635Z,41.95
2019-02-19T10:29:08.212Z,48.23
2019-02-19T10:31:38.026Z,45.92
2019-02-19T10:34:07.529Z,44.65
2019-02-19T10:36:38.560Z,48.23
2019-02-19T10:39:12.211Z,49.90
2019-02-19T10:41:41.655Z,49.00
2019-02-19T10:44:11.236Z,41.37
2019-02-19T10:46:41.133Z,43.35
2019-02-19T10:49:10.573Z,46.88
2019-02-19T10:51:39.446Z,43.42
2019-02-19T10:54:08.905Z,46.45
2019-02-19T10:56:38.339Z,44.98
2019-02-19T10:59:08.081Z,43.25
2019-02-19T11:01:37.811Z,37.88
2019-02-19T11:04:07.273Z,40.08
2019-02-19T11:06:36.894Z,43.60
2019-02-19T11:09:07.172Z,48.77
2019-02-19T11:11:36.653Z,40.80
2019-02-19T11:14:06.070Z,44.55
2019-02-19T11:16:35.705Z,42.83
2019-02-19T11:19:05.275Z,43.33
2019-02-19T11:21:34.719Z,37.30
2019-02-19T11:24:04.455Z,37.50
2019-02-19T11:26:33.950Z,36.97
2019-02-19T11:29:03.595Z,35.33
2019-02-19T11:31:33.079Z,38.58
2019-02-19T11:34:02.440Z,37.70
2019-02-19T11:36:31.905Z,35.88
2019-02-19T11:39:01.541Z,37.40
2019-02-19T11:41:30.995Z,29.77
2019-02-19T11:44:00.470Z,35.92
2019-02-19T11:46:30.114Z,36.90
2019-02-19T11:48:59.621Z,34.43
2019-02-19T11:51:29.105Z,33.00
2019-02-19T11:53:58.782Z,33.48
2019-02-19T11:56:28.297Z,35.50
2019-02-19T11:58:57.770Z,38.25
2019-02-19T12:01:27.390Z,33.73
2019-02-19T12:03:56.850Z,31.62
2019-02-19T12:06:26.326Z,33.65
2019-02-19T12:08:56.656Z,33.67
2019-02-19T12:11:26.508Z,35.55
2019-02-19T12:13:55.938Z,37.00
2019-02-19T12:16:25.403Z,28.02
2019-02-19T12:18:55.073Z,29.98
2019-02-19T12:21:24.522Z,33.02
2019-02-19T12:23:53.978Z,33.78
2019-02-19T12:26:23.592Z,30.55
2019-02-19T12:28:53.056Z,35.50
2019-02-19T12:31:21.888Z,32.90
2019-02-19T12:33:51.321Z,34.13
2019-02-19T12:36:20.949Z,39.58
2019-02-19T12:38:50.904Z,32.60
2019-02-19T12:41:20.330Z,32.70
2019-02-19T12:43:51.056Z,35.45
2019-02-19T12:46:20.470Z,35.33
2019-02-19T12:48:54.674Z,33.38
2019-02-19T12:51:26.472Z,36.93
2019-02-19T12:53:52.289Z,36.13
2019-02-19T12:56:22.076Z,34.30
2019-02-19T12:58:51.516Z,37.40
2019-02-19T13:01:21.040Z,32.37
2019-02-19T13:03:50.864Z,39.88
2019-02-19T13:06:20.372Z,34.58
2019-02-19T13:08:51.663Z,29.98
2019-02-19T13:11:21.362Z,34.60
2019-02-19T13:13:50.854Z,35.75
2019-02-19T13:16:20.292Z,34.10
2019-02-19T13:18:50.303Z,40.23
2019-02-19T13:21:19.802Z,32.10
2019-02-19T13:23:49.366Z,34.55
2019-02-19T13:26:18.870Z,34.77
2019-02-19T13:28:48.318Z,37.30
2019-02-19T13:31:18.175Z,37.08
2019-02-19T13:33:47.628Z,40.50
2019-02-19T13:36:17.303Z,32.48
2019-02-19T13:38:46.740Z,34.75
2019-02-19T13:41:16.348Z,37.05
2019-02-19T13:43:46.537Z,31.68
2019-02-19T13:46:16.132Z,33.92
2019-02-19T13:48:45.763Z,33.08
2019-02-19T13:51:15.355Z,39.35
2019-02-19T13:53:48.103Z,32.07
2019-02-19T13:56:17.643Z,38.13
2019-02-19T13:58:47.277Z,32.80
2019-02-19T14:01:16.716Z,34.73
2019-02-19T14:03:45.655Z,34.65
2019-02-19T14:06:15.109Z,32.15
2019-02-19T14:08:44.585Z,35.90
2019-02-19T14:11:14.573Z,27.25
2019-02-19T14:13:50.387Z,33.97
2019-02-19T14:16:27.808Z,31.68
2019-02-19T14:19:04.605Z,29.18
2019-02-19T14:21:59.903Z,34.25
2019-02-19T14:25:03.361Z,32.13
2019-02-19T14:27:50.674Z,35.90
2019-02-19T14:30:42.047Z,31.75
2019-02-19T14:33:29.354Z,31.17
2019-02-19T14:36:16.686Z,35.65
2019-02-19T14:39:08.063Z,37.23
2019-02-19T14:41:55.610Z,39.78
2019-02-19T14:44:50.198Z,38.60
2019-02-19T14:47:46.059Z,39.83
2019-02-19T14:50:43.605Z,39.38
2019-02-19T14:53:41.188Z,42.67
2019-02-19T14:56:35.606Z,36.53
2019-02-19T14:59:33.126Z,38.55
2019-02-19T15:02:27.563Z,41.80
2019-02-19T15:05:21.010Z,33.92
2019-02-19T15:08:16.951Z,46.60
2019-02-19T15:11:04.374Z,38.10
2019-02-19T15:13:40.605Z,38.15
2019-02-19T15:16:28.128Z,44.58
2019-02-19T15:19:22.598Z,36.67
2019-02-19T15:22:15.646Z,38.83
2019-02-19T15:24:57.509Z,38.70
2019-02-19T15:27:35.875Z,40.90
2019-02-19T15:30:43.262Z,45.95
2019-02-19T15:33:31.820Z,44.75
2019-02-19T15:36:38.546Z,43.40
2019-02-19T15:39:39.185Z,46.60
2019-02-19T15:42:23.620Z,45.73
2019-02-19T15:45:12.142Z,48.05
2019-02-19T15:48:09.901Z,45.85
2019-02-19T15:51:06.080Z,44.42
2019-02-19T15:53:54.718Z,46.35
2019-02-19T15:56:42.075Z,49.08
2019-02-19T15:59:31.558Z,47.13
2019-02-19T16:02:22.760Z,48.30
2019-02-19T16:05:13.990Z,50.90
2019-02-19T16:07:54.226Z,53.83
2019-02-19T16:10:54.642Z,50.70
2019-02-19T16:13:41.704Z,53.30
2019-02-19T16:16:33.064Z,52.13
2019-02-19T16:19:21.558Z,54.20
2019-02-19T16:22:01.149Z,51.13
2019-02-19T16:25:01.842Z,49.33
2019-02-19T16:27:43.180Z,50.88
2019-02-19T16:30:28.080Z,104.20
2019-02-19T16:33:16.764Z,52.60
2019-02-19T16:35:58.577Z,56.33
2019-02-19T16:38:52.899Z,51.70
2019-02-19T16:41:37.485Z,56.15
2019-02-19T16:44:17.801Z,61.25
2019-02-19T16:47:13.712Z,61.25
2019-02-19T16:49:55.644Z,57.80
2019-02-19T16:52:30.779Z,60.88
2019-02-19T16:55:31.152Z,62.13
2019-02-19T16:58:07.023Z,58.65
2019-02-19T17:00:51.371Z,55.83
2019-02-19T17:03:55.113Z,61.60
2019-02-19T17:06:49.509Z,57.17
2019-02-19T17:09:24.662Z,54.80
2019-02-19T17:12:12.220Z,54.83
2019-02-19T17:14:51.926Z,58.25
2019-02-19T17:17:53.102Z,59.77
2019-02-19T17:20:44.480Z,55.75
2019-02-19T17:23:32.867Z,58.98
2019-02-19T17:26:08.908Z,57.33
2019-02-19T17:29:06.406Z,54.63
2019-02-19T17:31:42.919Z,56.87
2019-02-19T17:34:38.260Z,55.78
2019-02-19T17:37:27.392Z,57.25
2019-02-19T17:40:18.611Z,57.73
2019-02-19T17:43:07.066Z,58.83
2019-02-19T17:45:59.389Z,64.15
2019-02-19T17:48:37.334Z,60.15
2019-02-19T17:51:25.770Z,60.90
2019-02-19T17:54:20.207Z,60.33
2019-02-19T17:57:02.830Z,61.90
2019-02-19T17:59:49.824Z,62.03
2019-02-19T18:02:31.295Z,61.50
2019-02-19T18:05:29.004Z,59.00
2019-02-19T18:08:16.304Z,64.00
2019-02-19T18:10:56.170Z,68.52
2019-02-19T18:13:35.291Z,67.20
2019-02-19T18:16:30.770Z,65.30
2019-02-19T18:19:00.290Z,67.85
2019-02-19T18:21:29.832Z,66.50
2019-02-19T18:23:59.444Z,64.13
2019-02-19T18:26:29.870Z,68.78
2019-02-19T18:28:59.802Z,64.80
2019-02-19T18:31:29.260Z,67.37
2019-02-19T18:33:58.874Z,63.35
2019-02-19T18:36:28.368Z,71.53
2019-02-19T18:38:57.965Z,68.45
2019-02-19T18:41:27.765Z,69.45
2019-02-19T18:43:57.426Z,71.07
2019-02-19T18:46:26.858Z,72.80
2019-02-19T18:48:56.368Z,72.60
2019-02-19T18:51:25.818Z,70.63
2019-02-19T18:56:30.017Z,79.85
2019-02-19T18:58:59.511Z,67.97
2019-02-19T19:01:29.465Z,71.25
2019-02-19T19:03:59.026Z,66.85
2019-02-19T19:06:28.657Z,67.82
2019-02-19T19:08:58.200Z,64.53
2019-02-19T19:11:27.722Z,64.42
2019-02-19T19:13:57.326Z,65.85
2019-02-19T19:16:26.869Z,66.35
2019-02-19T19:18:56.326Z,68.57
2019-02-19T19:21:25.884Z,62.03
2019-02-19T19:23:55.472Z,68.80
2019-02-19T19:26:25.031Z,62.75
2019-02-19T19:28:54.541Z,62.35
2019-02-19T19:31:32.974Z,59.58
2019-02-19T19:33:55.361Z,60.03
2019-02-19T19:36:24.919Z,57.45
2019-02-19T19:38:54.441Z,51.75
2019-02-19T19:41:23.921Z,44.53
2019-02-19T19:43:53.361Z,45.70
2019-02-19T19:46:22.938Z,44.05
2019-02-19T19:48:52.490Z,43.45
2019-02-19T19:51:22.141Z,43.48
2019-02-19T19:53:51.659Z,55.15
2019-02-19T19:56:21.061Z,47.03
2019-02-19T19:58:50.549Z,41.77
2019-02-19T20:01:20.034Z,41.28
2019-02-19T20:03:49.458Z,40.03
2019-02-19T20:06:19.054Z,47.15
2019-02-19T20:08:48.528Z,45.23
2019-02-19T20:11:18.332Z,47.73
2019-02-19T20:13:47.771Z,48.17
2019-02-19T20:16:17.266Z,54.45
2019-02-19T20:18:46.711Z,48.50
2019-02-19T20:21:16.209Z,41.37
2019-02-19T20:23:45.679Z,73.50
2019-02-19T20:26:15.110Z,45.50
2019-02-19T20:28:44.732Z,38.60
2019-02-19T20:31:14.414Z,44.55
2019-02-19T20:33:44.314Z,48.73
2019-02-19T20:36:13.808Z,51.65
2019-02-19T20:38:43.434Z,55.12
2019-02-19T20:41:12.938Z,54.55
2019-02-19T20:43:42.368Z,70.47
2019-02-19T20:46:12.099Z,73.90
2019-02-19T20:48:41.454Z,74.05
2019-02-19T20:51:10.943Z,74.95
2019-02-19T20:53:40.398Z,75.10
2019-02-19T20:56:10.047Z,81.65
2019-02-19T20:58:39.489Z,71.50
2019-02-19T21:01:08.900Z,71.82
2019-02-19T21:03:38.467Z,72.05
2019-02-19T21:06:08.037Z,67.95
2019-02-19T21:08:37.510Z,69.12
2019-02-19T21:11:07.150Z,64.50
2019-02-19T21:13:36.670Z,62.98
2019-02-19T21:16:06.174Z,67.45
2019-02-19T21:18:35.812Z,66.35
2019-02-19T21:21:05.364Z,62.00
2019-02-19T21:23:34.989Z,66.57
2019-02-19T21:26:04.536Z,69.50
2019-02-19T21:28:33.993Z,64.80
2019-02-19T21:31:03.550Z,62.10
2019-02-19T21:33:33.606Z,65.42
2019-02-19T21:36:03.106Z,67.10
2019-02-19T21:38:32.836Z,64.50
2019-02-19T21:41:02.306Z,65.05
2019-02-19T21:43:31.753Z,58.75
2019-02-19T21:46:01.390Z,63.80
2019-02-19T21:48:30.846Z,62.58
2019-02-19T21:51:00.446Z,59.75
2019-02-19T21:53:30.060Z,81.50
2019-02-19T21:56:00.101Z,61.95
2019-02-19T21:58:29.660Z,56.18
2019-02-19T22:00:59.104Z,54.05
2019-02-19T22:03:28.706Z,52.17
2019-02-19T22:05:58.129Z,50.15
2019-02-19T22:08:27.577Z,50.63
2019-02-19T22:10:57.028Z,60.67
2019-02-19T22:13:26.616Z,133.95
2019-02-19T22:15:56.154Z,53.80
2019-02-19T22:18:25.613Z,52.70
2019-02-19T22:21:12.828Z,65.90
2019-02-19T22:23:42.405Z,67.20
2019-02-19T22:26:12.011Z,67.32
2019-02-19T22:28:41.485Z,63.13
2019-02-19T22:31:11.005Z,69.42
2019-02-19T22:33:40.481Z,59.55
2019-02-19T22:36:10.288Z,58.40
2019-02-19T22:38:39.769Z,54.53
2019-02-19T22:41:09.510Z,54.10
2019-02-19T22:43:38.979Z,50.70
2019-02-19T22:46:08.468Z,59.73
2019-02-19T22:48:38.134Z,52.13
2019-02-19T22:51:07.578Z,44.75
2019-02-19T22:53:47.210Z,46.90
2019-02-19T22:56:20.512Z,50.50
2019-02-19T22:58:49.938Z,47.75
2019-02-19T23:01:25.779Z,60.48
2019-02-19T23:03:57.017Z,52.62
2019-02-19T23:06:26.439Z,50.28
2019-02-19T23:08:55.889Z,54.33
2019-02-19T23:11:25.451Z,51.18
2019-02-19T23:13:54.946Z,57.75
2019-02-19T23:16:24.457Z,52.98
2019-02-19T23:18:54.431Z,52.53
2019-02-19T23:21:23.881Z,59.50
2019-02-19T23:23:53.643Z,54.42
2019-02-19T23:26:23.078Z,58.58
2019-02-19T23:28:52.516Z,49.13
2019-02-19T23:31:22.190Z,57.48
2019-02-19T23:33:51.639Z,50.43
2019-02-19T23:36:34.653Z,65.17
2019-02-19T23:39:05.891Z,59.53
2019-02-19T23:41:35.336Z,55.90
2019-02-19T23:44:04.796Z,66.07
2019-02-19T23:46:34.211Z,66.53
2019-02-19T23:49:03.835Z,62.67
2019-02-19T23:51:33.697Z,65.62
2019-02-19T23:54:03.253Z,63.15
2019-02-19T23:56:32.801Z,59.80
2019-02-19T23:59:02.241Z,62.67
